sensor_id;sensor_type;location;lat;lon;timestamp;temperature;humidity
17599;DHT22;8918;52.092;5.232;2023-08-08T00:02:18;15.10;99.90
17599;DHT22;8918;52.092;5.232;2023-08-08T00:04:44;15.20;99.90
17599;DHT22;8918;52.092;5.232;2023-08-08T00:07:10;15.20;99.90
17599;DHT22;8918;52.092;5.232;2023-08-08T00:09:36;15.20;99.90
17599;DHT22;8918;52.092;5.232;2023-08-08T00:12:03;15.30;99.90
17599;DHT22;8918;52.092;5.232;2023-08-08T00:14:28;15.30;99.90
17599;DHT22;8918;52.092;5.232;2023-08-08T00:16:55;15.30;99.90
17599;DHT22;8918;52.092;5.232;2023-08-08T00:19:20;15.30;99.90
17599;DHT22;8918;52.092;5.232;2023-08-08T00:21:46;15.30;99.90
17599;DHT22;8918;52.092;5.232;2023-08-08T00:24:11;15.30;99.90
17599;DHT22;8918;52.092;5.232;2023-08-08T00:26:37;15.30;99.90
17599;DHT22;8918;52.092;5.232;2023-08-08T00:29:02;15.40;99.90
17599;DHT22;8918;52.092;5.232;2023-08-08T00:31:28;15.40;99.90
17599;DHT22;8918;52.092;5.232;2023-08-08T00:33:53;15.40;99.90
17599;DHT22;8918;52.092;5.232;2023-08-08T00:36:19;15.50;99.90
17599;DHT22;8918;52.092;5.232;2023-08-08T00:38:45;15.50;99.90
17599;DHT22;8918;52.092;5.232;2023-08-08T00:41:10;15.50;99.90
17599;DHT22;8918;52.092;5.232;2023-08-08T00:43:37;15.50;99.90
17599;DHT22;8918;52.092;5.232;2023-08-08T00:46:03;15.50;99.90
17599;DHT22;8918;52.092;5.232;2023-08-08T00:48:28;15.50;99.90
17599;DHT22;8918;52.092;5.232;2023-08-08T00:50:54;15.50;99.90
17599;DHT22;8918;52.092;5.232;2023-08-08T00:53:20;15.50;99.90
17599;DHT22;8918;52.092;5.232;2023-08-08T00:55:49;15.60;99.90
17599;DHT22;8918;52.092;5.232;2023-08-08T00:58:15;15.60;99.90
17599;DHT22;8918;52.092;5.232;2023-08-08T01:00:41;15.60;99.90
17599;DHT22;8918;52.092;5.232;2023-08-08T01:03:07;15.60;99.90
17599;DHT22;8918;52.092;5.232;2023-08-08T01:05:41;15.60;99.90
17599;DHT22;8918;52.092;5.232;2023-08-08T01:08:07;15.60;99.90
17599;DHT22;8918;52.092;5.232;2023-08-08T01:10:37;15.60;99.90
17599;DHT22;8918;52.092;5.232;2023-08-08T01:13:07;15.60;99.90
17599;DHT22;8918;52.092;5.232;2023-08-08T01:15:34;15.60;99.90
17599;DHT22;8918;52.092;5.232;2023-08-08T01:18:08;15.60;99.90
17599;DHT22;8918;52.092;5.232;2023-08-08T01:20:35;15.50;99.90
17599;DHT22;8918;52.092;5.232;2023-08-08T01:23:12;15.50;99.90
17599;DHT22;8918;52.092;5.232;2023-08-08T01:25:38;15.50;99.90
17599;DHT22;8918;52.092;5.232;2023-08-08T01:28:06;15.50;99.90
17599;DHT22;8918;52.092;5.232;2023-08-08T01:30:32;15.40;99.90
17599;DHT22;8918;52.092;5.232;2023-08-08T01:32:58;15.40;99.90
17599;DHT22;8918;52.092;5.232;2023-08-08T01:35:26;15.30;99.90
17599;DHT22;8918;52.092;5.232;2023-08-08T01:38:14;15.30;99.90
17599;DHT22;8918;52.092;5.232;2023-08-08T01:40:44;15.30;99.90
17599;DHT22;8918;52.092;5.232;2023-08-08T01:43:09;15.20;99.90
17599;DHT22;8918;52.092;5.232;2023-08-08T01:45:36;15.20;99.90
17599;DHT22;8918;52.092;5.232;2023-08-08T01:48:10;15.20;99.90
17599;DHT22;8918;52.092;5.232;2023-08-08T01:50:36;15.20;99.90
17599;DHT22;8918;52.092;5.232;2023-08-08T01:53:03;15.20;99.90
17599;DHT22;8918;52.092;5.232;2023-08-08T01:55:29;15.10;99.90
17599;DHT22;8918;52.092;5.232;2023-08-08T01:57:55;15.20;99.90
17599;DHT22;8918;52.092;5.232;2023-08-08T02:00:21;15.20;99.90
17599;DHT22;8918;52.092;5.232;2023-08-08T02:02:47;15.20;99.90
17599;DHT22;8918;52.092;5.232;2023-08-08T02:05:14;15.10;99.90
17599;DHT22;8918;52.092;5.232;2023-08-08T02:07:40;15.10;99.90
17599;DHT22;8918;52.092;5.232;2023-08-08T02:10:06;15.10;99.90
17599;DHT22;8918;52.092;5.232;2023-08-08T02:12:31;15.10;99.90
17599;DHT22;8918;52.092;5.232;2023-08-08T02:14:58;15.00;99.90
17599;DHT22;8918;52.092;5.232;2023-08-08T02:17:25;15.00;99.90
17599;DHT22;8918;52.092;5.232;2023-08-08T02:19:51;15.00;99.90
17599;DHT22;8918;52.092;5.232;2023-08-08T02:22:17;15.00;99.90
17599;DHT22;8918;52.092;5.232;2023-08-08T02:24:43;15.00;99.90
17599;DHT22;8918;52.092;5.232;2023-08-08T02:27:09;15.00;99.90
17599;DHT22;8918;52.092;5.232;2023-08-08T02:29:34;15.00;99.90
17599;DHT22;8918;52.092;5.232;2023-08-08T02:32:00;15.00;99.90
17599;DHT22;8918;52.092;5.232;2023-08-08T02:34:25;15.00;99.90
17599;DHT22;8918;52.092;5.232;2023-08-08T02:36:51;15.00;99.90
17599;DHT22;8918;52.092;5.232;2023-08-08T02:39:17;14.90;99.90
17599;DHT22;8918;52.092;5.232;2023-08-08T02:41:44;14.90;99.90
17599;DHT22;8918;52.092;5.232;2023-08-08T02:44:10;15.00;99.90
17599;DHT22;8918;52.092;5.232;2023-08-08T02:46:36;14.90;99.90
17599;DHT22;8918;52.092;5.232;2023-08-08T02:49:04;14.90;99.90
17599;DHT22;8918;52.092;5.232;2023-08-08T02:51:30;14.90;99.90
17599;DHT22;8918;52.092;5.232;2023-08-08T02:53:55;14.90;99.90
17599;DHT22;8918;52.092;5.232;2023-08-08T02:56:21;14.90;99.90
17599;DHT22;8918;52.092;5.232;2023-08-08T02:58:47;14.80;99.90
17599;DHT22;8918;52.092;5.232;2023-08-08T03:01:12;14.90;99.90
17599;DHT22;8918;52.092;5.232;2023-08-08T03:03:40;14.80;99.90
17599;DHT22;8918;52.092;5.232;2023-08-08T03:06:06;14.80;99.90
17599;DHT22;8918;52.092;5.232;2023-08-08T03:08:31;14.80;99.90
17599;DHT22;8918;52.092;5.232;2023-08-08T03:10:57;14.80;99.90
17599;DHT22;8918;52.092;5.232;2023-08-08T03:13:23;14.80;99.90
17599;DHT22;8918;52.092;5.232;2023-08-08T03:15:49;14.80;99.90
17599;DHT22;8918;52.092;5.232;2023-08-08T03:18:14;14.70;99.90
17599;DHT22;8918;52.092;5.232;2023-08-08T03:20:40;14.70;99.90
17599;DHT22;8918;52.092;5.232;2023-08-08T03:23:05;14.70;99.90
17599;DHT22;8918;52.092;5.232;2023-08-08T03:25:31;14.70;99.90
17599;DHT22;8918;52.092;5.232;2023-08-08T03:27:57;14.70;99.90
17599;DHT22;8918;52.092;5.232;2023-08-08T03:30:22;14.60;99.90
17599;DHT22;8918;52.092;5.232;2023-08-08T03:32:48;14.60;99.90
17599;DHT22;8918;52.092;5.232;2023-08-08T03:35:14;14.60;99.90
17599;DHT22;8918;52.092;5.232;2023-08-08T03:37:40;14.60;99.90
17599;DHT22;8918;52.092;5.232;2023-08-08T03:40:07;14.60;99.90
17599;DHT22;8918;52.092;5.232;2023-08-08T03:42:33;14.60;99.90
17599;DHT22;8918;52.092;5.232;2023-08-08T03:44:59;14.60;99.90
17599;DHT22;8918;52.092;5.232;2023-08-08T03:47:25;14.60;99.90
17599;DHT22;8918;52.092;5.232;2023-08-08T03:49:50;14.50;99.90
17599;DHT22;8918;52.092;5.232;2023-08-08T03:52:16;14.50;99.90
17599;DHT22;8918;52.092;5.232;2023-08-08T03:54:43;14.50;99.90
17599;DHT22;8918;52.092;5.232;2023-08-08T03:57:09;14.50;99.90
17599;DHT22;8918;52.092;5.232;2023-08-08T03:59:34;14.50;99.90
17599;DHT22;8918;52.092;5.232;2023-08-08T04:02:00;14.50;99.90
17599;DHT22;8918;52.092;5.232;2023-08-08T04:04:26;14.50;99.90
17599;DHT22;8918;52.092;5.232;2023-08-08T04:06:51;14.50;99.90
17599;DHT22;8918;52.092;5.232;2023-08-08T04:09:17;14.40;99.90
17599;DHT22;8918;52.092;5.232;2023-08-08T04:11:42;14.40;99.90
17599;DHT22;8918;52.092;5.232;2023-08-08T04:14:08;14.40;99.90
17599;DHT22;8918;52.092;5.232;2023-08-08T04:16:33;14.40;99.90
17599;DHT22;8918;52.092;5.232;2023-08-08T04:18:59;14.30;99.90
17599;DHT22;8918;52.092;5.232;2023-08-08T04:21:25;14.20;99.90
17599;DHT22;8918;52.092;5.232;2023-08-08T04:23:52;14.20;99.90
17599;DHT22;8918;52.092;5.232;2023-08-08T04:26:18;14.10;99.90
17599;DHT22;8918;52.092;5.232;2023-08-08T04:28:43;14.10;99.90
17599;DHT22;8918;52.092;5.232;2023-08-08T04:31:09;14.10;99.90
17599;DHT22;8918;52.092;5.232;2023-08-08T04:33:35;14.00;99.90
17599;DHT22;8918;52.092;5.232;2023-08-08T04:36:00;14.10;99.90
17599;DHT22;8918;52.092;5.232;2023-08-08T04:38:26;14.10;99.90
17599;DHT22;8918;52.092;5.232;2023-08-08T04:40:51;14.10;99.90
17599;DHT22;8918;52.092;5.232;2023-08-08T04:43:17;14.10;99.90
17599;DHT22;8918;52.092;5.232;2023-08-08T04:45:42;14.10;99.90
17599;DHT22;8918;52.092;5.232;2023-08-08T04:48:08;14.10;99.90
17599;DHT22;8918;52.092;5.232;2023-08-08T04:50:34;14.10;99.90
17599;DHT22;8918;52.092;5.232;2023-08-08T04:52:59;14.10;99.90
17599;DHT22;8918;52.092;5.232;2023-08-08T04:55:25;14.10;99.90
17599;DHT22;8918;52.092;5.232;2023-08-08T04:57:50;14.10;99.90
17599;DHT22;8918;52.092;5.232;2023-08-08T05:00:16;14.10;99.90
17599;DHT22;8918;52.092;5.232;2023-08-08T05:02:42;14.10;99.90
17599;DHT22;8918;52.092;5.232;2023-08-08T05:05:08;14.20;99.90
17599;DHT22;8918;52.092;5.232;2023-08-08T05:07:34;14.20;99.90
17599;DHT22;8918;52.092;5.232;2023-08-08T05:10:03;14.30;99.90
17599;DHT22;8918;52.092;5.232;2023-08-08T05:12:29;14.30;99.90
17599;DHT22;8918;52.092;5.232;2023-08-08T05:14:54;14.30;99.90
17599;DHT22;8918;52.092;5.232;2023-08-08T05:17:20;14.40;99.90
17599;DHT22;8918;52.092;5.232;2023-08-08T05:19:46;14.40;99.90
17599;DHT22;8918;52.092;5.232;2023-08-08T05:22:12;14.40;99.90
17599;DHT22;8918;52.092;5.232;2023-08-08T05:24:37;14.40;99.90
17599;DHT22;8918;52.092;5.232;2023-08-08T05:27:03;14.40;99.90
17599;DHT22;8918;52.092;5.232;2023-08-08T05:29:29;14.40;99.90
17599;DHT22;8918;52.092;5.232;2023-08-08T05:31:55;14.40;99.90
17599;DHT22;8918;52.092;5.232;2023-08-08T05:34:24;14.40;99.90
17599;DHT22;8918;52.092;5.232;2023-08-08T05:36:53;14.50;99.90
17599;DHT22;8918;52.092;5.232;2023-08-08T05:39:19;14.60;99.90
17599;DHT22;8918;52.092;5.232;2023-08-08T05:41:44;14.70;99.90
17599;DHT22;8918;52.092;5.232;2023-08-08T05:44:10;14.70;99.90
17599;DHT22;8918;52.092;5.232;2023-08-08T05:46:35;14.80;99.90
17599;DHT22;8918;52.092;5.232;2023-08-08T05:49:01;14.80;99.90
17599;DHT22;8918;52.092;5.232;2023-08-08T05:51:27;14.90;99.90
17599;DHT22;8918;52.092;5.232;2023-08-08T05:53:52;14.90;99.90
17599;DHT22;8918;52.092;5.232;2023-08-08T05:56:18;15.00;99.90
17599;DHT22;8918;52.092;5.232;2023-08-08T05:58:44;15.00;99.90
17599;DHT22;8918;52.092;5.232;2023-08-08T06:01:09;15.00;99.90
17599;DHT22;8918;52.092;5.232;2023-08-08T06:03:37;15.00;99.90
17599;DHT22;8918;52.092;5.232;2023-08-08T06:06:03;15.00;99.90
17599;DHT22;8918;52.092;5.232;2023-08-08T06:08:29;15.10;99.90
17599;DHT22;8918;52.092;5.232;2023-08-08T06:10:54;15.10;99.90
17599;DHT22;8918;52.092;5.232;2023-08-08T06:13:20;15.20;99.90
17599;DHT22;8918;52.092;5.232;2023-08-08T06:15:46;15.30;99.90
17599;DHT22;8918;52.092;5.232;2023-08-08T06:18:11;15.30;99.90
17599;DHT22;8918;52.092;5.232;2023-08-08T06:20:37;15.30;99.90
17599;DHT22;8918;52.092;5.232;2023-08-08T06:23:02;15.30;99.90
17599;DHT22;8918;52.092;5.232;2023-08-08T06:25:28;15.30;99.90
17599;DHT22;8918;52.092;5.232;2023-08-08T06:27:54;15.30;99.90
17599;DHT22;8918;52.092;5.232;2023-08-08T06:30:19;15.40;99.90
17599;DHT22;8918;52.092;5.232;2023-08-08T06:32:45;15.40;99.90
17599;DHT22;8918;52.092;5.232;2023-08-08T06:35:10;15.50;99.90
17599;DHT22;8918;52.092;5.232;2023-08-08T06:37:36;15.60;99.90
17599;DHT22;8918;52.092;5.232;2023-08-08T06:40:02;15.60;99.90
17599;DHT22;8918;52.092;5.232;2023-08-08T06:42:28;15.60;99.90
17599;DHT22;8918;52.092;5.232;2023-08-08T06:44:54;15.70;99.90
17599;DHT22;8918;52.092;5.232;2023-08-08T06:47:20;15.70;99.90
17599;DHT22;8918;52.092;5.232;2023-08-08T06:49:45;15.70;99.90
17599;DHT22;8918;52.092;5.232;2023-08-08T06:52:11;15.80;99.90
17599;DHT22;8918;52.092;5.232;2023-08-08T06:54:36;15.80;99.90
17599;DHT22;8918;52.092;5.232;2023-08-08T06:57:02;15.80;99.90
17599;DHT22;8918;52.092;5.232;2023-08-08T06:59:28;15.90;99.90
17599;DHT22;8918;52.092;5.232;2023-08-08T07:01:54;15.90;99.90
17599;DHT22;8918;52.092;5.232;2023-08-08T07:04:22;16.00;99.90
17599;DHT22;8918;52.092;5.232;2023-08-08T07:06:48;16.10;99.90
17599;DHT22;8918;52.092;5.232;2023-08-08T07:09:13;16.10;99.90
17599;DHT22;8918;52.092;5.232;2023-08-08T07:11:40;16.10;99.90
17599;DHT22;8918;52.092;5.232;2023-08-08T07:14:06;16.20;99.90
17599;DHT22;8918;52.092;5.232;2023-08-08T07:16:31;16.20;99.90
17599;DHT22;8918;52.092;5.232;2023-08-08T07:18:57;16.20;99.90
17599;DHT22;8918;52.092;5.232;2023-08-08T07:21:23;16.30;99.90
17599;DHT22;8918;52.092;5.232;2023-08-08T07:23:48;16.30;99.90
17599;DHT22;8918;52.092;5.232;2023-08-08T07:26:14;16.30;99.90
17599;DHT22;8918;52.092;5.232;2023-08-08T07:28:39;16.30;99.90
17599;DHT22;8918;52.092;5.232;2023-08-08T07:31:05;16.30;99.90
17599;DHT22;8918;52.092;5.232;2023-08-08T07:33:31;16.30;99.90
17599;DHT22;8918;52.092;5.232;2023-08-08T07:35:57;16.40;99.90
17599;DHT22;8918;52.092;5.232;2023-08-08T07:38:22;16.40;99.90
17599;DHT22;8918;52.092;5.232;2023-08-08T07:40:48;16.40;99.90
17599;DHT22;8918;52.092;5.232;2023-08-08T07:43:14;16.50;99.90
17599;DHT22;8918;52.092;5.232;2023-08-08T07:45:40;16.50;99.90
17599;DHT22;8918;52.092;5.232;2023-08-08T07:48:06;16.60;99.90
17599;DHT22;8918;52.092;5.232;2023-08-08T07:50:32;16.70;99.90
17599;DHT22;8918;52.092;5.232;2023-08-08T07:52:57;16.70;99.90
17599;DHT22;8918;52.092;5.232;2023-08-08T07:55:23;16.80;99.90
17599;DHT22;8918;52.092;5.232;2023-08-08T07:57:49;16.80;99.90
17599;DHT22;8918;52.092;5.232;2023-08-08T08:00:15;16.80;99.90
17599;DHT22;8918;52.092;5.232;2023-08-08T08:02:45;16.90;99.90
17599;DHT22;8918;52.092;5.232;2023-08-08T08:05:11;17.00;99.90
17599;DHT22;8918;52.092;5.232;2023-08-08T08:07:38;17.00;99.90
17599;DHT22;8918;52.092;5.232;2023-08-08T08:10:05;17.00;99.90
17599;DHT22;8918;52.092;5.232;2023-08-08T08:12:32;17.00;99.90
17599;DHT22;8918;52.092;5.232;2023-08-08T08:14:58;17.10;99.90
17599;DHT22;8918;52.092;5.232;2023-08-08T08:17:24;17.10;99.90
17599;DHT22;8918;52.092;5.232;2023-08-08T08:19:51;17.10;99.90
17599;DHT22;8918;52.092;5.232;2023-08-08T08:22:17;17.20;99.90
17599;DHT22;8918;52.092;5.232;2023-08-08T08:24:42;17.20;99.90
17599;DHT22;8918;52.092;5.232;2023-08-08T08:27:08;17.30;99.90
17599;DHT22;8918;52.092;5.232;2023-08-08T08:29:34;17.30;99.90
17599;DHT22;8918;52.092;5.232;2023-08-08T08:31:59;17.30;99.90
17599;DHT22;8918;52.092;5.232;2023-08-08T08:34:25;17.30;99.90
17599;DHT22;8918;52.092;5.232;2023-08-08T08:36:51;17.30;99.90
17599;DHT22;8918;52.092;5.232;2023-08-08T08:39:16;17.40;99.90
17599;DHT22;8918;52.092;5.232;2023-08-08T08:41:44;17.40;99.90
17599;DHT22;8918;52.092;5.232;2023-08-08T08:44:14;17.40;99.90
17599;DHT22;8918;52.092;5.232;2023-08-08T08:46:42;17.50;99.90
17599;DHT22;8918;52.092;5.232;2023-08-08T08:49:09;17.50;99.90
17599;DHT22;8918;52.092;5.232;2023-08-08T08:51:36;17.50;99.90
17599;DHT22;8918;52.092;5.232;2023-08-08T08:54:02;17.50;99.90
17599;DHT22;8918;52.092;5.232;2023-08-08T08:56:28;17.40;99.90
17599;DHT22;8918;52.092;5.232;2023-08-08T08:58:55;17.40;99.90
17599;DHT22;8918;52.092;5.232;2023-08-08T09:01:21;17.40;99.90
17599;DHT22;8918;52.092;5.232;2023-08-08T09:03:49;17.40;99.90
17599;DHT22;8918;52.092;5.232;2023-08-08T09:06:14;17.30;99.90
17599;DHT22;8918;52.092;5.232;2023-08-08T09:08:41;17.40;99.90
17599;DHT22;8918;52.092;5.232;2023-08-08T09:11:07;17.40;99.90
17599;DHT22;8918;52.092;5.232;2023-08-08T09:13:37;17.40;99.90
17599;DHT22;8918;52.092;5.232;2023-08-08T09:16:05;17.50;99.90
17599;DHT22;8918;52.092;5.232;2023-08-08T09:18:32;17.50;99.90
17599;DHT22;8918;52.092;5.232;2023-08-08T09:20:59;17.50;99.90
17599;DHT22;8918;52.092;5.232;2023-08-08T09:23:24;17.60;99.90
17599;DHT22;8918;52.092;5.232;2023-08-08T09:25:50;17.50;99.90
17599;DHT22;8918;52.092;5.232;2023-08-08T09:28:16;17.50;99.90
17599;DHT22;8918;52.092;5.232;2023-08-08T09:30:43;17.70;99.90
17599;DHT22;8918;52.092;5.232;2023-08-08T09:33:09;17.90;99.90
17599;DHT22;8918;52.092;5.232;2023-08-08T09:35:38;18.00;99.90
17599;DHT22;8918;52.092;5.232;2023-08-08T09:38:04;18.00;99.90
17599;DHT22;8918;52.092;5.232;2023-08-08T09:40:30;18.00;99.90
17599;DHT22;8918;52.092;5.232;2023-08-08T09:42:57;18.10;99.90
17599;DHT22;8918;52.092;5.232;2023-08-08T09:45:24;18.00;99.90
17599;DHT22;8918;52.092;5.232;2023-08-08T09:47:52;18.10;99.90
17599;DHT22;8918;52.092;5.232;2023-08-08T09:50:18;18.10;99.90
17599;DHT22;8918;52.092;5.232;2023-08-08T09:52:45;18.30;99.90
17599;DHT22;8918;52.092;5.232;2023-08-08T09:55:12;18.20;99.90
17599;DHT22;8918;52.092;5.232;2023-08-08T09:57:39;18.10;99.90
17599;DHT22;8918;52.092;5.232;2023-08-08T10:00:06;18.10;99.90
17599;DHT22;8918;52.092;5.232;2023-08-08T10:02:36;18.10;99.90
17599;DHT22;8918;52.092;5.232;2023-08-08T10:05:04;18.00;99.90
17599;DHT22;8918;52.092;5.232;2023-08-08T10:07:29;17.90;99.90
17599;DHT22;8918;52.092;5.232;2023-08-08T10:09:56;17.90;99.90
17599;DHT22;8918;52.092;5.232;2023-08-08T10:12:23;17.90;99.90
17599;DHT22;8918;52.092;5.232;2023-08-08T10:14:51;17.80;99.90
17599;DHT22;8918;52.092;5.232;2023-08-08T10:17:18;17.90;99.90
17599;DHT22;8918;52.092;5.232;2023-08-08T10:19:51;18.00;99.90
17599;DHT22;8918;52.092;5.232;2023-08-08T10:22:23;18.30;99.90
17599;DHT22;8918;52.092;5.232;2023-08-08T10:24:52;18.50;99.90
17599;DHT22;8918;52.092;5.232;2023-08-08T10:27:28;18.70;99.90
17599;DHT22;8918;52.092;5.232;2023-08-08T10:30:09;18.70;99.90
17599;DHT22;8918;52.092;5.232;2023-08-08T10:32:43;18.60;99.90
17599;DHT22;8918;52.092;5.232;2023-08-08T10:35:10;18.50;99.90
17599;DHT22;8918;52.092;5.232;2023-08-08T10:37:37;18.60;99.90
17599;DHT22;8918;52.092;5.232;2023-08-08T10:40:05;18.70;99.90
17599;DHT22;8918;52.092;5.232;2023-08-08T10:42:31;18.80;99.90
17599;DHT22;8918;52.092;5.232;2023-08-08T10:44:59;18.80;99.90
17599;DHT22;8918;52.092;5.232;2023-08-08T10:47:26;18.80;99.90
17599;DHT22;8918;52.092;5.232;2023-08-08T10:50:03;18.80;99.90
17599;DHT22;8918;52.092;5.232;2023-08-08T10:52:29;18.70;99.90
17599;DHT22;8918;52.092;5.232;2023-08-08T10:54:55;18.60;99.90
17599;DHT22;8918;52.092;5.232;2023-08-08T10:57:25;18.50;99.90
17599;DHT22;8918;52.092;5.232;2023-08-08T10:59:51;18.50;99.90
17599;DHT22;8918;52.092;5.232;2023-08-08T11:02:17;18.60;99.90
17599;DHT22;8918;52.092;5.232;2023-08-08T11:04:44;18.80;99.90
17599;DHT22;8918;52.092;5.232;2023-08-08T11:07:10;19.00;99.90
17599;DHT22;8918;52.092;5.232;2023-08-08T11:09:36;19.20;99.90
17599;DHT22;8918;52.092;5.232;2023-08-08T11:12:02;19.30;99.90
17599;DHT22;8918;52.092;5.232;2023-08-08T11:14:28;19.50;99.90
17599;DHT22;8918;52.092;5.232;2023-08-08T11:16:54;19.60;99.90
17599;DHT22;8918;52.092;5.232;2023-08-08T11:19:20;19.60;99.90
17599;DHT22;8918;52.092;5.232;2023-08-08T11:21:48;19.60;99.90
17599;DHT22;8918;52.092;5.232;2023-08-08T11:24:14;19.60;99.90
17599;DHT22;8918;52.092;5.232;2023-08-08T11:26:42;19.50;99.90
17599;DHT22;8918;52.092;5.232;2023-08-08T11:29:09;19.40;99.90
17599;DHT22;8918;52.092;5.232;2023-08-08T11:31:35;19.40;99.90
17599;DHT22;8918;52.092;5.232;2023-08-08T11:34:01;19.50;99.90
17599;DHT22;8918;52.092;5.232;2023-08-08T11:36:31;19.70;99.90
17599;DHT22;8918;52.092;5.232;2023-08-08T11:39:00;19.80;99.90
17599;DHT22;8918;52.092;5.232;2023-08-08T11:41:26;19.80;99.90
17599;DHT22;8918;52.092;5.232;2023-08-08T11:43:52;19.80;99.90
17599;DHT22;8918;52.092;5.232;2023-08-08T11:46:22;19.70;99.90
17599;DHT22;8918;52.092;5.232;2023-08-08T11:48:47;19.70;99.90
17599;DHT22;8918;52.092;5.232;2023-08-08T11:51:15;19.70;99.90
17599;DHT22;8918;52.092;5.232;2023-08-08T11:53:53;19.60;99.90
17599;DHT22;8918;52.092;5.232;2023-08-08T11:56:20;19.40;99.90
17599;DHT22;8918;52.092;5.232;2023-08-08T11:58:50;19.30;99.90
17599;DHT22;8918;52.092;5.232;2023-08-08T12:01:26;19.20;99.90
17599;DHT22;8918;52.092;5.232;2023-08-08T12:03:52;19.00;99.90
17599;DHT22;8918;52.092;5.232;2023-08-08T12:06:19;18.90;99.90
17599;DHT22;8918;52.092;5.232;2023-08-08T12:08:46;19.00;99.90
17599;DHT22;8918;52.092;5.232;2023-08-08T12:11:12;19.00;99.90
17599;DHT22;8918;52.092;5.232;2023-08-08T12:13:43;19.00;99.90
17599;DHT22;8918;52.092;5.232;2023-08-08T12:16:10;19.10;99.90
17599;DHT22;8918;52.092;5.232;2023-08-08T12:18:37;19.20;99.90
17599;DHT22;8918;52.092;5.232;2023-08-08T12:21:08;19.20;99.90
17599;DHT22;8918;52.092;5.232;2023-08-08T12:23:34;19.20;99.90
17599;DHT22;8918;52.092;5.232;2023-08-08T12:26:02;19.30;99.90
17599;DHT22;8918;52.092;5.232;2023-08-08T12:28:30;19.20;99.90
17599;DHT22;8918;52.092;5.232;2023-08-08T12:30:56;19.10;99.90
17599;DHT22;8918;52.092;5.232;2023-08-08T12:33:21;19.00;99.90
17599;DHT22;8918;52.092;5.232;2023-08-08T12:35:48;18.80;99.90
17599;DHT22;8918;52.092;5.232;2023-08-08T12:38:14;18.90;99.90
17599;DHT22;8918;52.092;5.232;2023-08-08T12:40:41;19.00;99.90
17599;DHT22;8918;52.092;5.232;2023-08-08T12:43:06;19.20;99.90
17599;DHT22;8918;52.092;5.232;2023-08-08T12:45:32;19.20;99.90
17599;DHT22;8918;52.092;5.232;2023-08-08T12:47:58;19.10;99.90
17599;DHT22;8918;52.092;5.232;2023-08-08T12:50:24;19.10;99.90
17599;DHT22;8918;52.092;5.232;2023-08-08T12:52:50;19.00;99.90
17599;DHT22;8918;52.092;5.232;2023-08-08T12:55:15;19.00;99.90
17599;DHT22;8918;52.092;5.232;2023-08-08T12:57:43;18.90;99.90
17599;DHT22;8918;52.092;5.232;2023-08-08T13:00:09;18.90;99.90
17599;DHT22;8918;52.092;5.232;2023-08-08T13:02:37;18.80;99.90
17599;DHT22;8918;52.092;5.232;2023-08-08T13:05:02;18.80;99.90
17599;DHT22;8918;52.092;5.232;2023-08-08T13:07:29;18.70;99.90
17599;DHT22;8918;52.092;5.232;2023-08-08T13:09:54;18.70;99.90
17599;DHT22;8918;52.092;5.232;2023-08-08T13:12:20;18.70;99.90
17599;DHT22;8918;52.092;5.232;2023-08-08T13:14:47;18.70;99.90
17599;DHT22;8918;52.092;5.232;2023-08-08T13:17:12;18.80;99.90
17599;DHT22;8918;52.092;5.232;2023-08-08T13:19:38;18.70;99.90
17599;DHT22;8918;52.092;5.232;2023-08-08T13:22:04;18.90;99.90
17599;DHT22;8918;52.092;5.232;2023-08-08T13:24:29;19.10;99.90
17599;DHT22;8918;52.092;5.232;2023-08-08T13:26:55;19.20;99.90
17599;DHT22;8918;52.092;5.232;2023-08-08T13:29:21;19.30;99.90
17599;DHT22;8918;52.092;5.232;2023-08-08T13:31:47;19.50;99.90
17599;DHT22;8918;52.092;5.232;2023-08-08T13:34:14;19.70;99.90
17599;DHT22;8918;52.092;5.232;2023-08-08T13:36:40;19.80;99.90
17599;DHT22;8918;52.092;5.232;2023-08-08T13:39:07;19.70;99.90
17599;DHT22;8918;52.092;5.232;2023-08-08T13:41:34;19.70;99.90
17599;DHT22;8918;52.092;5.232;2023-08-08T13:44:00;19.70;99.90
17599;DHT22;8918;52.092;5.232;2023-08-08T13:46:26;19.60;99.90
17599;DHT22;8918;52.092;5.232;2023-08-08T13:48:51;19.50;99.90
17599;DHT22;8918;52.092;5.232;2023-08-08T13:51:17;19.50;99.90
17599;DHT22;8918;52.092;5.232;2023-08-08T13:53:42;19.50;99.90
17599;DHT22;8918;52.092;5.232;2023-08-08T13:56:08;19.60;99.90
17599;DHT22;8918;52.092;5.232;2023-08-08T13:58:36;19.80;99.90
17599;DHT22;8918;52.092;5.232;2023-08-08T14:01:01;19.90;99.90
17599;DHT22;8918;52.092;5.232;2023-08-08T14:03:27;19.90;99.90
17599;DHT22;8918;52.092;5.232;2023-08-08T14:05:53;19.80;99.90
17599;DHT22;8918;52.092;5.232;2023-08-08T14:08:18;19.80;99.90
17599;DHT22;8918;52.092;5.232;2023-08-08T14:10:44;19.70;99.90
17599;DHT22;8918;52.092;5.232;2023-08-08T14:13:10;19.60;99.90
17599;DHT22;8918;52.092;5.232;2023-08-08T14:15:37;19.50;99.90
17599;DHT22;8918;52.092;5.232;2023-08-08T14:18:03;19.50;99.90
17599;DHT22;8918;52.092;5.232;2023-08-08T14:20:30;19.40;99.90
17599;DHT22;8918;52.092;5.232;2023-08-08T14:22:56;19.40;99.90
17599;DHT22;8918;52.092;5.232;2023-08-08T14:25:22;19.30;99.90
17599;DHT22;8918;52.092;5.232;2023-08-08T14:27:47;19.30;99.90
17599;DHT22;8918;52.092;5.232;2023-08-08T14:30:13;19.20;99.90
17599;DHT22;8918;52.092;5.232;2023-08-08T14:32:39;19.20;99.90
17599;DHT22;8918;52.092;5.232;2023-08-08T14:35:05;19.20;99.90
17599;DHT22;8918;52.092;5.232;2023-08-08T14:37:31;19.30;99.90
17599;DHT22;8918;52.092;5.232;2023-08-08T14:39:57;19.30;99.90
17599;DHT22;8918;52.092;5.232;2023-08-08T14:42:23;19.30;99.90
17599;DHT22;8918;52.092;5.232;2023-08-08T14:44:48;19.30;99.90
17599;DHT22;8918;52.092;5.232;2023-08-08T14:47:14;19.20;99.90
17599;DHT22;8918;52.092;5.232;2023-08-08T14:49:40;19.20;99.90
17599;DHT22;8918;52.092;5.232;2023-08-08T14:52:05;19.40;99.90
17599;DHT22;8918;52.092;5.232;2023-08-08T14:54:34;19.50;99.90
17599;DHT22;8918;52.092;5.232;2023-08-08T14:57:00;19.70;99.90
17599;DHT22;8918;52.092;5.232;2023-08-08T14:59:27;19.70;99.90
17599;DHT22;8918;52.092;5.232;2023-08-08T15:01:52;19.70;99.90
17599;DHT22;8918;52.092;5.232;2023-08-08T15:04:18;19.90;99.90
17599;DHT22;8918;52.092;5.232;2023-08-08T15:06:44;20.30;99.90
17599;DHT22;8918;52.092;5.232;2023-08-08T15:09:10;20.60;99.90
17599;DHT22;8918;52.092;5.232;2023-08-08T15:11:36;20.70;99.90
17599;DHT22;8918;52.092;5.232;2023-08-08T15:14:02;20.90;99.90
17599;DHT22;8918;52.092;5.232;2023-08-08T15:16:28;20.80;99.90
17599;DHT22;8918;52.092;5.232;2023-08-08T15:18:54;20.70;99.90
17599;DHT22;8918;52.092;5.232;2023-08-08T15:21:21;20.50;99.90
17599;DHT22;8918;52.092;5.232;2023-08-08T15:23:47;20.30;99.90
17599;DHT22;8918;52.092;5.232;2023-08-08T15:26:13;20.10;99.90
17599;DHT22;8918;52.092;5.232;2023-08-08T15:28:39;20.00;99.90
17599;DHT22;8918;52.092;5.232;2023-08-08T15:31:04;19.90;99.90
17599;DHT22;8918;52.092;5.232;2023-08-08T15:33:30;19.90;99.90
17599;DHT22;8918;52.092;5.232;2023-08-08T15:35:56;19.90;99.90
17599;DHT22;8918;52.092;5.232;2023-08-08T15:38:21;19.90;99.90
17599;DHT22;8918;52.092;5.232;2023-08-08T15:40:47;19.80;99.90